Time;durP1;ratioP1;P1;durP2;ratioP2;P2;SDS_P1;SDS_P2;PMS_P1;PMS_P2;Temp;Humidity;BMP_temperature;BMP_pressure;BME280_temperature;BME280_humidity;BME280_pressure;Samples;Min_cycle;Max_cycle;Signal;HPM_P1;HPM_P2
2022/11/02 00:00:24;;;;;;;26.45;14.32;;;;;;;9.99;100.00;100805.94;5036392;28;20056;-73
2022/11/02 00:02:51;;;;;;;28.85;14.40;;;;;;;9.94;100.00;100804.50;5054266;28;20091;-72
2022/11/02 00:05:23;;;;;;;26.92;13.57;;;;;;;9.89;100.00;100805.13;5036517;28;20055;-72
2022/11/02 00:07:51;;;;;;;31.25;14.18;;;;;;;9.88;100.00;100805.63;5054376;28;20025;-72
2022/11/02 00:10:18;;;;;;;29.27;14.82;;;;;;;9.84;100.00;100813.56;5054574;28;20020;-72
2022/11/02 00:12:45;;;;;;;26.45;13.80;;;;;;;9.79;100.00;100809.25;5036528;28;20111;-72
2022/11/02 00:15:12;;;;;;;25.67;13.88;;;;;;;9.76;100.00;100813.06;5019905;28;20032;-72
2022/11/02 00:17:41;;;;;;;28.38;15.20;;;;;;;9.74;100.00;100811.97;5036360;28;20124;-72
2022/11/02 00:20:08;;;;;;;26.67;13.88;;;;;;;9.69;100.00;100810.53;5020343;28;20111;-73
2022/11/02 00:22:35;;;;;;;29.17;13.70;;;;;;;9.66;100.00;100812.25;5036369;28;20036;-72
2022/11/02 00:25:03;;;;;;;29.77;14.45;;;;;;;9.64;100.00;100817.63;5036205;28;20064;-72
2022/11/02 00:27:29;;;;;;;30.33;14.90;;;;;;;9.61;100.00;100823.50;5054086;28;20032;-73
2022/11/02 00:29:56;;;;;;;19.63;12.60;;;;;;;9.59;100.00;100818.25;5054030;28;20021;-73
2022/11/02 00:32:24;;;;;;;24.90;13.43;;;;;;;9.57;100.00;100825.72;5019699;28;20037;-71
2022/11/02 00:34:52;;;;;;;26.48;13.43;;;;;;;9.57;100.00;100828.56;5035735;28;20473;-72
2022/11/02 00:37:25;;;;;;;24.55;13.20;;;;;;;9.54;100.00;100821.75;5035910;28;20031;-71
2022/11/02 00:39:52;;;;;;;31.58;13.73;;;;;;;9.54;100.00;100830.31;5053693;28;20025;-71
2022/11/02 00:42:20;;;;;;;26.38;13.60;;;;;;;9.52;100.00;100834.91;5053615;28;20500;-73
2022/11/02 00:44:46;;;;;;;24.02;13.70;;;;;;;9.52;100.00;100837.75;5053977;28;20040;-72
2022/11/02 00:47:12;;;;;;;27.92;12.98;;;;;;;9.52;100.00;100838.53;5053718;28;20029;-72
2022/11/02 00:49:37;;;;;;;23.00;12.75;;;;;;;9.53;100.00;100842.19;5053559;28;20043;-72
2022/11/02 00:52:03;;;;;;;22.52;11.95;;;;;;;9.51;100.00;100839.00;5019588;28;20029;-72
2022/11/02 00:54:29;;;;;;;22.50;13.05;;;;;;;9.49;100.00;100845.22;5035136;28;20522;-72
2022/11/02 00:56:56;;;;;;;23.60;13.45;;;;;;;9.44;100.00;100842.19;5052799;28;20124;-72
2022/11/02 00:59:21;;;;;;;23.63;12.35;;;;;;;9.40;100.00;100838.66;5034809;28;20481;-73
2022/11/02 01:01:48;;;;;;;22.95;12.63;;;;;;;9.43;100.00;100844.22;5019536;28;20493;-73
2022/11/02 01:04:15;;;;;;;26.58;13.02;;;;;;;9.43;100.00;100846.28;5053620;28;20036;-74
2022/11/02 01:06:41;;;;;;;26.33;12.32;;;;;;;9.41;100.00;100840.25;5035720;28;20033;-73
2022/11/02 01:09:13;;;;;;;22.92;12.07;;;;;;;9.36;100.00;100840.88;5019338;28;20514;-73
2022/11/02 01:11:41;;;;;;;25.67;13.85;;;;;;;9.34;100.00;100838.50;5035318;28;20032;-73
2022/11/02 01:14:06;;;;;;;22.00;11.75;;;;;;;9.34;100.00;100841.38;5035808;28;20033;-73
2022/11/02 01:16:37;;;;;;;20.63;11.75;;;;;;;9.35;100.00;100842.16;5019304;28;20036;-72
2022/11/02 01:19:03;;;;;;;21.98;12.13;;;;;;;9.29;100.00;100835.47;5035421;28;20087;-73
2022/11/02 01:21:29;;;;;;;24.40;11.55;;;;;;;9.28;100.00;100837.53;5035758;28;20058;-72
2022/11/02 01:23:55;;;;;;;24.05;12.02;;;;;;;9.29;100.00;100841.19;5035270;28;20028;-72
2022/11/02 01:26:23;;;;;;;26.23;12.23;;;;;;;9.26;100.00;100842.91;5053105;28;20025;-72
2022/11/02 01:28:52;;;;;;;21.90;10.65;;;;;;;9.20;100.00;100842.72;5054036;28;20032;-71
2022/11/02 01:31:18;;;;;;;22.80;11.07;;;;;;;9.21;100.00;100844.31;5053418;28;20025;-72
2022/11/02 01:33:46;;;;;;;21.52;11.18;;;;;;;9.19;100.00;100841.16;5053360;28;20025;-72
2022/11/02 01:36:15;;;;;;;23.08;11.18;;;;;;;9.14;100.00;100838.94;5035347;28;20061;-72
2022/11/02 01:38:48;;;;;;;24.20;11.25;;;;;;;9.15;100.00;100837.63;5052930;28;20100;-73
2022/11/02 01:41:23;;;;;;;22.50;12.25;;;;;;;9.10;100.00;100838.25;5053338;28;20107;-73
2022/11/02 01:44:00;;;;;;;24.63;11.65;;;;;;;9.05;100.00;100838.88;5052932;28;20462;-72
2022/11/02 01:46:36;;;;;;;22.58;11.57;;;;;;;9.03;100.00;100837.78;5038196;28;20036;-73
2022/11/02 01:49:23;;;;;;;20.02;11.82;;;;;;;9.01;100.00;100835.38;5022757;28;20053;-73
2022/11/02 01:52:08;;;;;;;25.25;16.98;;;;;;;8.97;100.00;100837.59;5038902;28;20103;-73
2022/11/02 01:54:39;;;;;;;32.58;22.13;;;;;;;8.91;100.00;100842.31;5056879;28;20437;-72
2022/11/02 01:57:07;;;;;;;115.72;85.80;;;;;;;8.89;100.00;100838.34;5023073;28;20037;-72
2022/11/02 01:59:38;;;;;;;125.10;87.88;;;;;;;8.88;100.00;100842.44;5038762;28;20061;-73
2022/11/02 02:02:04;;;;;;;129.98;91.80;;;;;;;8.88;100.00;100839.59;5022557;28;20043;-73
2022/11/02 02:04:38;;;;;;;84.10;58.15;;;;;;;8.86;100.00;100842.13;5056718;28;20060;-73
2022/11/02 02:07:04;;;;;;;61.85;42.63;;;;;;;8.85;100.00;100834.84;5038863;28;20087;-72
2022/11/02 02:09:31;;;;;;;76.07;52.65;;;;;;;8.83;100.00;100838.16;5038090;28;20566;-72
2022/11/02 02:11:59;;;;;;;59.72;41.15;;;;;;;8.83;100.00;100838.16;5006099;28;20473;-72
2022/11/02 02:14:24;;;;;;;57.60;38.50;;;;;;;8.81;100.00;100832.13;5056425;28;20024;-72
2022/11/02 02:17:21;;;;;;;57.35;39.63;;;;;;;8.80;100.00;100839.88;5038806;28;20132;-73
2022/11/02 02:20:12;;;;;;;38.63;26.77;;;;;;;8.75;100.00;100836.88;5025729;28;20073;-73
2022/11/02 02:22:56;;;;;;;36.10;22.65;;;;;;;8.72;100.00;100832.09;5056617;28;20021;-73
2022/11/02 02:25:41;;;;;;;32.70;15.88;;;;;;;8.71;100.00;100839.03;5056553;28;20029;-73
2022/11/02 02:28:31;;;;;;;22.63;12.60;;;;;;;8.72;100.00;100838.56;5038257;28;20037;-72
2022/11/02 02:31:20;;;;;;;20.52;10.95;;;;;;;8.75;100.00;100842.56;5056113;28;20429;-74
2022/11/02 02:33:55;;;;;;;26.52;10.88;;;;;;;8.80;100.00;100847.66;5056203;28;20028;-73
2022/11/02 02:36:27;;;;;;;19.38;11.65;;;;;;;8.83;100.00;100847.50;5038287;28;20036;-73
2022/11/02 02:38:52;;;;;;;;;;;;;;;8.89;100.00;100855.44;5038548;28;20029;-73
2022/11/02 02:41:32;;;;;;;21.53;10.53;;;;;;;8.94;100.00;100857.69;5056259;28;19904;-73
2022/11/02 02:44:02;;;;;;;19.85;10.95;;;;;;;8.96;100.00;100861.63;5022096;28;20298;-73
2022/11/02 02:46:56;;;;;;;19.88;11.52;;;;;;;9.01;100.00;100860.22;5038307;28;20034;-74
2022/11/02 02:49:34;;;;;;;20.58;11.00;;;;;;;8.97;100.00;100851.84;5038206;28;20036;-73
2022/11/02 02:52:02;;;;;;;21.50;10.70;;;;;;;9.04;100.00;100865.81;5038167;28;20187;-73
2022/11/02 02:54:35;;;;;;;24.35;12.18;;;;;;;9.04;100.00;100862.97;5021677;28;20041;-72
2022/11/02 02:57:06;;;;;;;28.77;12.57;;;;;;;9.06;100.00;100862.47;5021576;28;20079;-72
2022/11/02 02:59:36;;;;;;;23.65;11.32;;;;;;;9.06;100.00;100851.88;5037556;28;20045;-71
2022/11/02 03:02:04;;;;;;;21.33;10.32;;;;;;;9.05;100.00;100860.91;5055375;28;20492;-72
2022/11/02 03:04:31;;;;;;;30.92;12.65;;;;;;;9.04;100.00;100862.16;5021309;28;20087;-71
2022/11/02 03:06:59;;;;;;;23.67;11.77;;;;;;;9.02;100.00;100856.91;5037869;28;20032;-71
2022/11/02 03:09:34;;;;;;;26.23;11.80;;;;;;;9.00;100.00;100855.81;5037672;28;20040;-72
2022/11/02 03:12:16;;;;;;;27.10;12.48;;;;;;;8.96;100.00;100863.69;5055384;28;20385;-73
2022/11/02 03:14:51;;;;;;;;;;;;;;;8.91;100.00;100865.09;5038304;28;20098;-72
2022/11/02 03:17:29;;;;;;;19.27;10.98;;;;;;;8.87;100.00;100858.75;5055652;28;19909;-72
2022/11/02 03:19:59;;;;;;;17.02;9.73;;;;;;;8.82;100.00;100860.16;5021445;28;20040;-72
2022/11/02 03:23:03;;;;;;;22.08;11.20;;;;;;;8.79;100.00;100851.75;5055180;28;20044;-71
2022/11/02 03:25:43;;;;;;;23.58;11.18;;;;;;;8.72;100.00;100854.88;5055216;28;20118;-72
2022/11/02 03:28:14;;;;;;;20.33;11.52;;;;;;;8.74;100.00;100852.38;5038635;28;20367;-74
2022/11/02 03:30:55;;;;;;;19.98;11.73;;;;;;;8.74;100.00;100858.88;5037070;28;20436;-73
2022/11/02 03:33:32;;;;;;;22.55;12.63;;;;;;;8.73;100.00;100853.63;5037590;28;20029;-72
2022/11/02 03:36:20;;;;;;;19.85;11.95;;;;;;;8.72;100.00;100857.72;5037254;28;20058;-73
2022/11/02 03:39:05;;;;;;;21.02;11.02;;;;;;;8.70;100.00;100860.25;5037135;28;20120;-72
2022/11/02 03:41:31;;;;;;;26.95;11.60;;;;;;;8.67;100.00;100859.13;5054661;28;20024;-72
2022/11/02 03:44:10;;;;;;;21.83;11.20;;;;;;;8.63;100.00;100864.16;5037239;28;20025;-73
2022/11/02 03:46:45;;;;;;;23.48;12.18;;;;;;;8.62;100.00;100870.31;5036979;28;20432;-72
2022/11/02 03:49:15;;;;;;;23.98;12.10;;;;;;;8.61;100.00;100868.72;5036782;28;20162;-72
2022/11/02 03:51:43;;;;;;;22.70;12.82;;;;;;;8.59;100.00;100857.03;5020995;28;20476;-72
2022/11/02 03:54:14;;;;;;;25.38;12.23;;;;;;;8.57;100.00;100865.22;5003915;28;20029;-74
2022/11/02 03:56:54;;;;;;;23.48;13.20;;;;;;;8.55;100.00;100862.06;5036679;28;20033;-73
2022/11/02 03:59:33;;;;;;;22.25;11.35;;;;;;;8.54;100.00;100869.81;5036583;28;20045;-73
2022/11/02 04:02:01;;;;;;;20.92;11.93;;;;;;;8.54;100.00;100877.56;5037291;28;20025;-73
2022/11/02 04:04:34;;;;;;;23.13;12.27;;;;;;;8.53;100.00;100871.06;5054560;28;20099;-72
2022/11/02 04:07:01;;;;;;;21.95;11.50;;;;;;;8.55;100.00;100879.97;5054577;28;20056;-72
2022/11/02 04:09:28;;;;;;;28.48;12.70;;;;;;;8.54;100.00;100878.38;5053947;28;20028;-72
2022/11/02 04:14:40;;;;;;;24.70;12.43;;;;;;;8.54;100.00;100880.41;5054246;28;20043;-73
2022/11/02 04:19:56;;;;;;;20.98;11.27;;;;;;;8.49;100.00;100890.34;5054302;28;20417;-72
2022/11/02 04:25:14;;;;;;;26.50;12.38;;;;;;;8.42;100.00;100884.13;5039074;28;20091;-72
2022/11/02 04:27:41;;;;;;;24.33;13.50;;;;;;;8.42;100.00;100884.91;5054239;28;20032;-72
2022/11/02 04:30:07;;;;;;;22.40;12.18;;;;;;;8.39;100.00;100883.81;5036224;28;20036;-73
2022/11/02 04:35:38;;;;;;;18.52;10.75;;;;;;;8.34;100.00;100880.75;5038708;28;20102;-73
2022/11/02 04:41:40;;;;;;;22.48;12.30;;;;;;;8.28;100.00;100880.53;5039216;28;20413;-73
2022/11/02 04:43:35;;;;;;;24.75;11.07;;;;;;;8.26;100.00;100885.91;5053380;28;20497;-73
2022/11/02 04:46:02;;;;;;;26.77;12.30;;;;;;;8.24;100.00;100885.59;5035251;28;20045;-73
2022/11/02 04:48:30;;;;;;;22.73;10.88;;;;;;;8.24;100.00;100882.75;5036113;28;20025;-73
2022/11/02 04:50:58;;;;;;;24.63;12.85;;;;;;;8.22;100.00;100876.69;5053739;28;20116;-73
2022/11/02 04:53:24;;;;;;;23.50;12.90;;;;;;;8.22;100.00;100876.69;5053664;28;20462;-73
2022/11/02 04:55:50;;;;;;;19.98;11.52;;;;;;;8.20;100.00;100879.22;5018566;28;20394;-72
2022/11/02 04:58:17;;;;;;;19.63;11.60;;;;;;;8.18;100.00;100884.59;5053130;28;20020;-72
2022/11/02 05:00:42;;;;;;;24.33;12.02;;;;;;;8.18;100.00;100889.47;5053049;28;20462;-72
2022/11/02 05:03:07;;;;;;;24.02;11.95;;;;;;;8.16;100.00;100887.09;5052224;28;20040;-73
2022/11/02 05:05:33;;;;;;;24.10;12.35;;;;;;;8.15;100.00;100888.34;5053357;28;20386;-72
2022/11/02 05:08:00;;;;;;;23.70;12.27;;;;;;;8.12;100.00;100882.75;5051679;28;20041;-73
2022/11/02 05:10:27;;;;;;;24.10;11.90;;;;;;;8.11;100.00;100881.19;5035615;28;20027;-73
2022/11/02 05:12:59;;;;;;;22.30;11.93;;;;;;;8.08;100.00;100887.78;5053158;28;20489;-73
2022/11/02 05:15:26;;;;;;;24.85;12.63;;;;;;;8.06;100.00;100885.41;5035267;28;20064;-73
2022/11/02 05:18:00;;;;;;;26.23;13.02;;;;;;;8.06;100.00;100884.63;5019147;28;20112;-73
2022/11/02 05:20:25;;;;;;;27.95;12.57;;;;;;;8.04;100.00;100881.44;5036262;28;20029;-73
2022/11/02 05:22:50;;;;;;;23.75;13.52;;;;;;;8.03;100.00;100888.38;5056223;28;20048;-73
2022/11/02 05:25:17;;;;;;;33.88;13.93;;;;;;;8.00;100.00;100890.09;5057346;28;20514;-73
2022/11/02 05:27:42;;;;;;;23.05;12.75;;;;;;;8.01;100.00;100886.00;5057124;28;20027;-72
2022/11/02 05:30:08;;;;;;;31.38;13.82;;;;;;;8.00;100.00;100895.00;5056514;28;20116;-73
2022/11/02 05:32:36;;;;;;;25.33;12.18;;;;;;;8.01;100.00;100897.38;5057227;28;20029;-73
2022/11/02 05:35:03;;;;;;;25.35;13.13;;;;;;;7.96;100.00;100886.59;5039480;28;20024;-73
2022/11/02 05:37:31;;;;;;;25.33;12.68;;;;;;;7.95;100.00;100891.47;5057096;28;20025;-73
2022/11/02 05:39:58;;;;;;;23.08;13.55;;;;;;;8.00;100.00;100892.94;5056873;28;20165;-73
2022/11/02 05:42:24;;;;;;;25.35;13.65;;;;;;;8.01;100.00;100893.75;5057047;28;20036;-72
2022/11/02 05:44:50;;;;;;;19.27;11.52;;;;;;;8.02;100.00;100898.94;5057162;28;20029;-73
2022/11/02 05:47:15;;;;;;;25.92;13.07;;;;;;;8.01;100.00;100902.28;5039459;28;20123;-73
2022/11/02 05:49:49;;;;;;;22.75;12.88;;;;;;;8.03;100.00;100908.28;5038299;28;20033;-73
2022/11/02 05:52:15;;;;;;;26.70;12.52;;;;;;;8.02;100.00;100901.78;5056837;28;20394;-73
2022/11/02 05:54:45;;;;;;;23.92;12.60;;;;;;;8.02;100.00;100901.78;5038836;28;20036;-74
2022/11/02 05:57:10;;;;;;;27.33;13.00;;;;;;;8.03;100.00;100905.44;5057239;28;20033;-74
2022/11/02 05:59:35;;;;;;;26.25;12.98;;;;;;;7.96;100.00;100900.81;5055648;28;20053;-74
2022/11/02 06:02:01;;;;;;;25.98;13.38;;;;;;;8.02;100.00;100910.34;5056702;28;20421;-74
2022/11/02 06:04:27;;;;;;;28.92;13.23;;;;;;;7.99;100.00;100905.56;5056607;28;20028;-71
2022/11/02 06:06:52;;;;;;;26.65;11.63;;;;;;;8.06;100.00;100910.22;5056654;28;20068;-74
2022/11/02 06:09:20;;;;;;;36.80;12.55;;;;;;;8.07;100.00;100906.09;5055744;28;20068;-72
2022/11/02 06:11:46;;;;;;;30.67;15.02;;;;;;;8.03;100.00;100899.75;5056561;28;20033;-74
2022/11/02 06:14:13;;;;;;;32.45;14.07;;;;;;;8.07;100.00;100914.66;5056507;28;20064;-76
2022/11/02 06:16:38;;;;;;;34.78;11.75;;;;;;;8.07;100.00;100909.75;5056806;28;20083;-75
2022/11/02 06:19:04;;;;;;;22.98;11.68;;;;;;;8.08;100.00;100910.53;5056582;28;20028;-75
2022/11/02 06:21:36;;;;;;;24.10;11.15;;;;;;;8.07;100.00;100912.59;5056064;28;20055;-75
2022/11/02 06:24:03;;;;;;;24.00;10.98;;;;;;;8.07;100.00;100917.50;5054993;28;20519;-76
2022/11/02 06:26:28;;;;;;;23.45;10.35;;;;;;;8.10;100.00;100910.91;5020876;28;20040;-76
2022/11/02 06:28:54;;;;;;;25.10;11.57;;;;;;;8.17;100.00;100919.19;5055258;28;20033;-73
2022/11/02 06:31:22;;;;;;;21.65;11.18;;;;;;;8.24;100.00;100933.97;5054561;28;20108;-73
2022/11/02 06:33:47;;;;;;;28.02;12.18;;;;;;;8.30;100.00;100935.00;5053984;28;20067;-73
2022/11/02 06:36:14;;;;;;;21.45;10.98;;;;;;;8.39;100.00;100937.09;5055075;28;20462;-73
2022/11/02 06:38:40;;;;;;;23.30;11.23;;;;;;;8.46;100.00;100945.38;5054411;28;20481;-74
2022/11/02 06:41:09;;;;;;;21.55;11.95;;;;;;;8.49;100.00;100937.97;5055698;28;20519;-73
2022/11/02 06:43:37;;;;;;;18.63;9.75;;;;;;;8.54;100.00;100937.38;5045435;28;20033;-73
2022/11/02 06:46:04;;;;;;;25.38;10.50;;;;;;;8.55;100.00;100927.59;5036180;28;20466;-74
2022/11/02 06:48:32;;;;;;;23.50;9.85;;;;;;;8.59;100.00;100931.09;5018208;28;20049;-75
2022/11/02 06:50:58;;;;;;;20.48;10.45;;;;;;;8.76;100.00;100941.00;5018115;28;20079;-73
2022/11/02 06:53:25;;;;;;;18.65;10.18;;;;;;;8.87;100.00;100941.41;5018224;28;20029;-72
2022/11/02 06:55:56;;;;;;;21.77;10.27;;;;;;;8.99;100.00;100949.09;5001704;28;20025;-74
2022/11/02 06:58:23;;;;;;;22.00;9.80;;;;;;;9.09;100.00;100944.22;5017983;28;20045;-76
2022/11/02 07:00:59;;;;;;;21.95;9.57;;;;;;;9.22;100.00;100951.41;5017967;28;20021;-73
2022/11/02 07:03:26;;;;;;;18.95;10.13;;;;;;;9.31;100.00;100947.00;5018176;28;20505;-78
2022/11/02 07:05:53;;;;;;;23.67;10.40;;;;;;;9.42;100.00;100947.38;5001423;28;20033;-77
2022/11/02 07:08:20;;;;;;;19.40;9.05;;;;;;;9.55;100.00;100945.19;5001283;28;20483;-78
2022/11/02 07:10:47;;;;;;;18.05;10.10;;;;;;;9.64;100.00;100946.03;5017668;28;20450;-80
2022/11/02 07:13:13;;;;;;;23.83;10.13;;;;;;;9.72;100.00;100949.41;4985013;28;20041;-78
2022/11/02 07:15:40;;;;;;;33.30;12.70;;;;;;;9.81;100.00;100952.28;5035612;28;20087;-80
2022/11/02 07:18:07;;;;;;;20.63;10.15;;;;;;;9.92;100.00;100952.66;5035037;28;20029;-78
2022/11/02 07:20:34;;;;;;;21.05;9.50;;;;;;;9.99;100.00;100948.69;5035397;28;20033;-78
2022/11/02 07:23:02;;;;;;;21.33;10.65;;;;;;;10.02;100.00;100953.47;5000685;28;20104;-78
2022/11/02 07:25:29;;;;;;;22.60;11.10;;;;;;;10.07;100.00;100958.53;5008168;28;20037;-77
2022/11/02 07:27:58;;;;;;;22.73;11.27;;;;;;;10.19;100.00;100962.50;5054152;28;20128;-77
2022/11/02 07:30:27;;;;;;;24.15;11.07;;;;;;;10.30;100.00;100963.63;5036373;28;20041;-77
2022/11/02 07:32:54;;;;;;;21.67;10.93;;;;;;;10.52;100.00;100952.06;5024041;28;20045;-78
2022/11/02 07:35:20;;;;;;;23.33;11.57;;;;;;;10.84;100.00;100953.44;5042198;28;20024;-82
2022/11/02 07:38:03;;;;;;;24.58;10.82;;;;;;;11.17;100.00;100954.34;5037449;28;20072;-80
2022/11/02 07:40:30;;;;;;;27.20;10.77;;;;;;;11.36;100.00;100947.31;5009236;28;20355;-80
2022/11/02 07:42:56;;;;;;;24.10;10.88;;;;;;;11.66;100.00;100950.38;5053904;28;20052;-80
2022/11/02 07:45:24;;;;;;;46.92;15.45;;;;;;;11.99;100.00;100956.06;5036970;28;20444;-80
2022/11/02 07:47:50;;;;;;;20.98;9.45;;;;;;;12.11;100.00;100946.44;5019615;28;20041;-81
2022/11/02 07:50:18;;;;;;;25.77;10.80;;;;;;;12.20;100.00;100940.63;5054618;28;20420;-80
2022/11/02 07:52:46;;;;;;;19.05;9.32;;;;;;;12.24;100.00;100929.78;5036815;28;20045;-80
2022/11/02 07:55:13;;;;;;;25.45;10.88;;;;;;;12.52;100.00;100939.75;5053889;28;20116;-81
2022/11/02 07:57:40;;;;;;;21.38;9.68;;;;;;;12.76;100.00;100944.63;5019635;28;20115;-82
2022/11/02 08:00:12;;;;;;;30.67;9.48;;;;;;;12.95;100.00;100943.16;5053099;28;20045;-80
2022/11/02 08:02:38;;;;;;;26.65;10.10;;;;;;;13.03;100.00;100936.56;5053442;28;20024;-79
2022/11/02 08:05:08;;;;;;;24.85;9.82;;;;;;;13.03;100.00;100938.63;5054192;28;20032;-79
2022/11/02 08:07:34;;;;;;;36.88;10.95;;;;;;;12.88;100.00;100930.03;5054186;28;20033;-77
2022/11/02 08:10:03;;;;;;;17.85;8.10;;;;;;;12.94;100.00;100924.38;5052949;28;20025;-78
2022/11/02 08:12:29;;;;;;;23.70;9.15;;;;;;;12.88;100.00;100921.41;5049607;28;20033;-80
2022/11/02 08:14:56;;;;;;;22.73;9.27;;;;;;;12.82;100.00;100928.31;5034179;28;20494;-78
2022/11/02 08:17:23;;;;;;;24.02;9.27;;;;;;;12.70;100.00;100922.38;5034520;28;20029;-77
2022/11/02 08:19:49;;;;;;;19.45;8.63;;;;;;;12.46;100.00;100897.91;5016169;28;20021;-76
2022/11/02 08:22:15;;;;;;;18.17;8.55;;;;;;;12.54;100.00;100924.94;5016268;28;20030;-76
2022/11/02 08:24:41;;;;;;;21.23;8.50;;;;;;;12.49;100.00;100926.41;5015832;28;20060;-78
2022/11/02 08:27:08;;;;;;;21.08;8.93;;;;;;;12.43;100.00;100922.63;5016262;28;20037;-79
2022/11/02 08:29:35;;;;;;;39.47;9.10;;;;;;;12.36;100.00;100917.28;5033983;28;20033;-79
2022/11/02 08:32:01;;;;;;;15.95;8.77;;;;;;;12.38;100.00;100923.31;5016469;28;20021;-79
2022/11/02 08:34:27;;;;;;;13.02;6.65;;;;;;;12.36;100.00;100936.50;5035944;28;20044;-78
2022/11/02 08:36:53;;;;;;;16.13;7.70;;;;;;;12.35;100.00;100941.47;5035872;28;20032;-77
2022/11/02 08:39:19;;;;;;;9.95;5.97;;;;;;;12.33;100.00;100926.84;5019187;28;20041;-78
2022/11/02 08:41:46;;;;;;;17.58;7.30;;;;;;;12.30;100.00;100936.41;5053822;28;20050;-76
2022/11/02 08:44:13;;;;;;;15.32;7.57;;;;;;;12.34;100.00;100931.28;5052740;28;20413;-77
2022/11/02 08:46:40;;;;;;;15.23;6.70;;;;;;;12.40;100.00;100937.16;5053560;28;20029;-76
2022/11/02 08:49:06;;;;;;;13.70;6.00;;;;;;;12.38;100.00;100920.44;5054880;28;20029;-80
2022/11/02 08:51:33;;;;;;;16.23;5.65;;;;;;;12.44;100.00;100927.09;5053939;28;20054;-76
2022/11/02 08:53:58;;;;;;;14.95;6.03;;;;;;;12.48;100.00;100929.75;5054471;28;20040;-77
2022/11/02 08:56:24;;;;;;;14.77;6.07;;;;;;;12.53;100.00;100931.94;5053686;28;20029;-77
2022/11/02 08:58:49;;;;;;;12.02;4.65;;;;;;;12.56;100.00;100933.81;5053512;28;20061;-77
2022/11/02 09:01:15;;;;;;;11.30;5.57;;;;;;;12.57;100.00;100930.47;5035932;28;20098;-77
2022/11/02 09:03:41;;;;;;;11.43;4.15;;;;;;;12.50;100.00;100933.75;5035858;28;20115;-76
2022/11/02 09:06:06;;;;;;;10.82;4.45;;;;;;;12.55;100.00;100929.41;5002866;28;20136;-76
2022/11/02 09:08:33;;;;;;;11.75;4.95;;;;;;;12.57;100.00;100932.53;5035773;28;20025;-76
2022/11/02 09:11:01;;;;;;;5.85;3.75;;;;;;;12.58;100.00;100929.19;5036582;28;20028;-76
2022/11/02 09:13:28;;;;;;;19.50;4.55;;;;;;;12.60;100.00;100926.59;5036075;28;20028;-76
2022/11/02 09:15:54;;;;;;;8.90;3.90;;;;;;;12.64;100.00;100930.09;5035948;28;20039;-77
2022/11/02 09:18:22;;;;;;;7.25;3.28;;;;;;;12.64;100.00;100923.56;5053686;28;20021;-79
2022/11/02 09:20:50;;;;;;;10.00;3.58;;;;;;;12.64;100.00;100915.75;5035605;28;20053;-78
2022/11/02 09:23:25;;;;;;;11.02;3.78;;;;;;;12.72;100.00;100923.97;5053714;28;20033;-78
2022/11/02 09:25:51;;;;;;;8.07;3.00;;;;;;;12.73;100.00;100923.47;5053653;28;20024;-77
2022/11/02 09:28:17;;;;;;;6.97;3.28;;;;;;;12.78;100.00;100927.72;5053692;28;20033;-76
2022/11/02 09:30:42;;;;;;;9.05;3.55;;;;;;;12.83;100.00;100930.72;5053758;28;20033;-80
2022/11/02 09:33:09;;;;;;;10.25;3.50;;;;;;;12.83;100.00;100927.84;5035725;28;20033;-79
2022/11/02 09:35:37;;;;;;;11.52;3.33;;;;;;;12.92;100.00;100929.81;5036981;28;20040;-77
2022/11/02 09:38:03;;;;;;;8.23;3.50;;;;;;;12.93;100.00;100925.66;5036347;28;20385;-80
2022/11/02 09:41:07;;;;;;;8.02;3.42;;;;;;;12.99;100.00;100929.44;5052924;28;20029;-80
2022/11/02 09:44:03;;;;;;;8.85;3.88;;;;;;;13.10;100.00;100926.75;5011874;28;20041;-79
2022/11/02 09:46:42;;;;;;;10.05;2.80;;;;;;;13.09;100.00;100919.44;5037430;28;20071;-79
2022/11/02 09:49:18;;;;;;;11.75;2.88;;;;;;;13.21;100.00;100929.81;5003375;28;20033;-75
2022/11/02 09:51:54;;;;;;;9.82;3.40;;;;;;;13.27;100.00;100924.97;5019130;28;20064;-77
2022/11/02 09:54:30;;;;;;;12.50;3.45;;;;;;;13.21;100.00;100938.41;5035326;28;20033;-78
2022/11/02 09:57:00;;;;;;;12.27;3.00;;;;;;;13.13;100.00;100943.78;5053606;28;20029;-78
2022/11/02 09:59:29;;;;;;;9.23;2.97;;;;;;;13.21;100.00;100943.34;5034780;28;20045;-78
2022/11/02 10:02:48;;;;;;;11.95;4.10;;;;;;;13.30;100.00;100941.16;5034078;28;20051;-80
2022/11/02 10:05:29;;;;;;;4.75;2.85;;;;;;;13.36;100.00;100932.66;4970802;28;20509;-78
2022/11/02 10:08:14;;;;;;;16.65;5.40;;;;;;;13.41;100.00;100934.81;4974205;28;20035;-78
2022/11/02 10:11:13;;;;;;;7.97;3.05;;;;;;;13.39;100.00;100932.44;4975078;28;20533;-78
2022/11/02 10:13:57;;;;;;;9.70;2.90;;;;;;;13.44;100.00;100934.63;5015697;28;20128;-78
2022/11/02 10:16:57;;;;;;;6.65;2.58;;;;;;;13.45;100.00;100927.59;5021046;28;20055;-78
2022/11/02 10:19:22;;;;;;;5.85;2.58;;;;;;;13.51;100.00;100919.88;5054624;28;20037;-78
2022/11/02 10:21:51;;;;;;;4.82;2.40;;;;;;;13.58;100.00;100935.94;5036676;28;20624;-78
2022/11/02 10:24:28;;;;;;;12.10;2.92;;;;;;;13.64;100.00;100930.28;5021361;28;20024;-78
2022/11/02 10:27:03;;;;;;;9.68;2.78;;;;;;;13.67;100.00;100943.63;5038221;28;20043;-77
2022/11/02 10:29:39;;;;;;;12.77;2.25;;;;;;;13.72;98.72;100940.84;5038400;28;20021;-78
2022/11/02 10:32:04;;;;;;;6.82;2.10;;;;;;;13.82;97.05;100947.25;5022174;28;20102;-79
2022/11/02 10:34:40;;;;;;;13.95;2.50;;;;;;;13.87;94.66;100949.41;5056379;28;20478;-78
2022/11/02 10:37:46;;;;;;;32.55;5.70;;;;;;;13.92;93.98;100954.44;5038285;28;20032;-79
2022/11/02 10:40:30;;;;;;;2.78;1.67;;;;;;;13.98;94.27;100946.72;5026360;28;20041;-79
2022/11/02 10:43:23;;;;;;;6.97;1.95;;;;;;;14.01;92.61;100950.66;5056493;28;20082;-78
2022/11/02 10:46:01;;;;;;;17.45;2.70;;;;;;;14.00;94.52;100944.09;5052176;28;20048;-78
2022/11/02 10:48:41;;;;;;;4.05;1.80;;;;;;;13.97;93.92;100937.28;5055202;28;20377;-80
2022/11/02 10:51:28;;;;;;;15.70;3.10;;;;;;;13.94;92.78;100946.09;5055211;28;20044;-79
2022/11/02 10:53:55;;;;;;;7.25;1.98;;;;;;;13.79;92.88;100948.22;5038014;28;20094;-78
2022/11/02 10:56:45;;;;;;;8.00;2.30;;;;;;;13.91;93.66;100947.13;5021026;28;20363;-78
2022/11/02 10:59:18;;;;;;;7.78;2.45;;;;;;;13.94;93.77;100946.09;5038050;28;20060;-78
2022/11/02 11:02:07;;;;;;;10.48;2.25;;;;;;;13.95;94.83;100941.94;5055723;28;20484;-78
2022/11/02 11:04:33;;;;;;;5.45;2.40;;;;;;;13.91;93.70;100944.25;5055766;28;20469;-79
2022/11/02 11:07:16;;;;;;;6.82;2.05;;;;;;;13.87;93.91;100941.59;5021338;28;20029;-78
2022/11/02 11:09:55;;;;;;;6.32;2.33;;;;;;;13.86;94.08;100933.47;5056013;28;20028;-78
2022/11/02 11:12:33;;;;;;;6.60;1.75;;;;;;;13.88;96.85;100936.63;5037624;28;20060;-78
2022/11/02 11:15:21;;;;;;;7.00;2.45;;;;;;;13.89;96.55;100932.44;5020930;28;20029;-78
2022/11/02 11:17:47;;;;;;;8.50;2.20;;;;;;;13.92;97.09;100935.13;5053922;28;20021;-79
2022/11/02 11:20:27;;;;;;;9.00;2.67;;;;;;;14.02;97.63;100929.25;5055502;28;20036;-78
2022/11/02 11:23:24;;;;;;;7.10;2.70;;;;;;;14.08;96.39;100928.03;5055602;28;20119;-78
2022/11/02 11:26:02;;;;;;;8.10;2.40;;;;;;;14.08;96.10;100918.63;5055211;28;20079;-78
2022/11/02 11:28:51;;;;;;;6.95;2.38;;;;;;;13.48;95.03;100856.91;5020585;28;20158;-78
2022/11/02 11:31:25;;;;;;;11.52;3.30;;;;;;;14.13;98.17;100926.53;5055074;28;20086;-78
2022/11/02 11:33:51;;;;;;;10.40;2.63;;;;;;;14.18;97.60;100908.56;5037813;28;20454;-78
2022/11/02 11:36:28;;;;;;;9.43;2.90;;;;;;;14.24;96.89;100901.56;5037063;28;20377;-78
2022/11/02 11:38:56;;;;;;;5.47;2.38;;;;;;;14.26;95.46;100907.63;5021226;28;20025;-78
2022/11/02 11:41:23;;;;;;;9.50;3.60;;;;;;;14.22;94.00;100903.38;5021585;28;20033;-78
2022/11/02 11:43:50;;;;;;;9.57;3.20;;;;;;;14.16;94.39;100899.63;5054828;28;20081;-78